»·PEaware :: SWA488 KSFO-KLAX

SWA488 :: KSFO-KLAX

FLIGHT INFORMATION

Flight Status: Arrived
Operator:
Southwest Airlines
More flights by this operator :: More flights under this callsign
Pilot: Benjamin R. (11326)
Aircraft: BOEING 737-300
(B733)
More flights by this aircraft type
Origin: KSFO San Francisco Intl
United States
Destination: KLAX Los Angeles Intl
United States
More flights between these airports :: More routes between these airports
Route: +PORTE7 AVE SADDE6
File this flight plan on PilotEdge
Remarks: Expecting gate 13 at LAX
Altitude:
(Current/Filed)
35,000ft
Speed:
(Current/Filed)
431kts
Departed: 15-May-16 08:29 AM
Arrived: 15-May-16 09:28 AM
Distance/Time
Traveled:
293nm/0:59
Distance/Time
To Go:
Arrived

Flight Plot

Page will automatically refresh every two minutes.


Map Options




Map Legend


Flown Route
Filed Route
Departure Airport
Arrival Airport
Navaid (VOR, NDB)
Fix

Horizontal Profiles

Position Reports

Time Latitude Longitude Heading Altitude Ground
Speed
15-May-16 07:43 37.612842 -122.383197 296 20ft 0kts
15-May-16 07:44 37.612842 -122.383197 296 20ft 0kts
15-May-16 07:45 37.612842 -122.383197 296 20ft 0kts
15-May-16 07:46 37.612842 -122.383197 296 20ft 0kts
15-May-16 07:47 37.612842 -122.383197 296 20ft 0kts
15-May-16 07:48 37.612842 -122.383197 296 20ft 0kts
15-May-16 07:49 37.612842 -122.383197 296 20ft 0kts
15-May-16 07:50 37.612842 -122.383197 296 20ft 0kts
15-May-16 07:51 37.612842 -122.383197 296 20ft 0kts
15-May-16 07:52 37.612842 -122.383197 296 20ft 0kts
15-May-16 07:53 37.612842 -122.383197 296 20ft 0kts
15-May-16 07:54 37.612842 -122.383197 296 20ft 0kts
15-May-16 07:55 37.612842 -122.383197 296 20ft 0kts
15-May-16 07:56 37.612842 -122.383197 296 20ft 0kts
15-May-16 07:57 37.612842 -122.383197 296 20ft 0kts
15-May-16 07:58 37.612842 -122.383197 296 20ft 0kts
15-May-16 07:59 37.612842 -122.383197 296 20ft 0kts
15-May-16 08:00 37.612842 -122.383197 296 20ft 0kts
15-May-16 08:01 37.612842 -122.383197 296 20ft 0kts
15-May-16 08:02 37.612842 -122.383197 296 20ft 0kts
15-May-16 08:03 37.612842 -122.383197 296 20ft 0kts
15-May-16 08:03 37.612842 -122.383197 296 20ft 0kts
15-May-16 08:04 37.612842 -122.383197 296 20ft 0kts
15-May-16 08:05 37.612842 -122.383197 296 20ft 0kts
15-May-16 08:06 37.612842 -122.383197 296 20ft 0kts
15-May-16 08:07 37.612842 -122.383197 296 20ft 0kts
15-May-16 08:08 37.612842 -122.383197 296 20ft 0kts
15-May-16 08:09 37.612842 -122.383197 296 20ft 0kts
15-May-16 08:11 37.612842 -122.383197 296 20ft 0kts
15-May-16 08:12 37.612842 -122.383197 296 20ft 0kts
15-May-16 08:13 37.612842 -122.383197 296 20ft 0kts
15-May-16 08:14 37.612842 -122.383197 296 20ft 0kts
15-May-16 08:15 37.612842 -122.383197 296 20ft 0kts
15-May-16 08:16 37.612842 -122.383197 296 20ft 0kts
15-May-16 08:17 37.612606 -122.382631 297 20ft 0kts
15-May-16 08:18 37.612612 -122.382351 201 20ft 0kts
15-May-16 08:19 37.612612 -122.382351 201 20ft 0kts
15-May-16 08:20 37.612612 -122.382351 201 20ft 0kts
15-May-16 08:21 37.612612 -122.382351 201 20ft 0kts
15-May-16 08:22 37.612612 -122.382351 201 20ft 0kts
15-May-16 08:23 37.611976 -122.382714 208 20ft 6kts
15-May-16 08:24 37.609936 -122.384195 217 20ft 10kts
15-May-16 08:25 37.608428 -122.383784 117 20ft 0kts
15-May-16 08:26 37.608428 -122.383784 117 20ft 0kts
15-May-16 08:27 37.608241 -122.383334 116 20ft 3kts
15-May-16 08:28 37.612466 -122.379898 26 20ft 84kts
15-May-16 08:29 37.650660 -122.356501 355 1123ft 173kts
15-May-16 08:30 37.687862 -122.394906 280 2606ft 223kts
15-May-16 08:31 37.650088 -122.455868 203 4773ft 268kts
15-May-16 08:32 37.588626 -122.503726 227 5012ft 266kts
15-May-16 08:33 37.518975 -122.496785 148 5022ft 283kts
15-May-16 08:34 37.465523 -122.427470 122 5022ft 280kts
15-May-16 08:35 37.423300 -122.345203 121 7337ft 292kts
15-May-16 08:36 37.376084 -122.260606 133 10129ft 308kts
15-May-16 08:37 37.311199 -122.174519 131 11746ft 363kts
15-May-16 08:38 37.241738 -122.080195 131 14221ft 383kts
15-May-16 08:39 37.169045 -121.981543 131 16524ft 402kts
15-May-16 08:40 37.093142 -121.878640 131 18624ft 420kts
15-May-16 08:41 37.013885 -121.771019 132 19083ft 426kts
15-May-16 08:42 36.931685 -121.666903 135 19123ft 426kts
15-May-16 08:43 36.846728 -121.561418 134 21045ft 442kts
15-May-16 08:44 36.758063 -121.451550 134 22803ft 458kts
15-May-16 08:45 36.666668 -121.338689 135 24520ft 471kts
15-May-16 08:46 36.572496 -121.222822 135 26119ft 483kts
15-May-16 08:47 36.475095 -121.106131 136 27539ft 496kts
15-May-16 08:48 36.377365 -120.987296 135 29046ft 501kts
15-May-16 08:49 36.279903 -120.868086 135 30485ft 503kts
15-May-16 08:50 36.180897 -120.747182 136 31056ft 494kts
15-May-16 08:50 36.099571 -120.648699 136 31043ft 494kts
15-May-16 08:52 35.985021 -120.510468 136 31046ft 494kts
15-May-16 08:52 35.903331 -120.412254 136 31044ft 494kts
15-May-16 08:53 35.805221 -120.294693 136 31050ft 493kts
15-May-16 08:54 35.707656 -120.178204 136 31043ft 485kts
15-May-16 08:55 35.611730 -120.064519 137 31039ft 483kts
15-May-16 08:56 35.514451 -119.950776 135 31046ft 484kts
15-May-16 08:57 35.419080 -119.836688 136 31030ft 483kts
15-May-16 08:58 35.322632 -119.722277 136 31033ft 485kts
15-May-16 09:00 35.223665 -119.613345 147 31025ft 477kts
15-May-16 09:01 35.118485 -119.525298 146 29344ft 451kts
15-May-16 09:02 35.011841 -119.433967 146 28132ft 486kts
15-May-16 09:03 34.902094 -119.340282 146 26707ft 486kts
15-May-16 09:04 34.793384 -119.247806 145 24751ft 463kts
15-May-16 09:05 34.691919 -119.162212 146 24554ft 443kts
15-May-16 09:06 34.586928 -119.075752 146 22258ft 462kts
15-May-16 09:07 34.482862 -118.988707 145 19375ft 449kts
15-May-16 09:08 34.384481 -118.906423 145 16668ft 422kts
15-May-16 09:09 34.287935 -118.855568 165 14414ft 390kts
15-May-16 09:10 34.190223 -118.819852 165 12391ft 361kts
15-May-16 09:11 34.098273 -118.785094 165 11687ft 315kts
15-May-16 09:12 34.035810 -118.729234 97 11442ft 293kts
15-May-16 09:13 34.027249 -118.633754 94 9808ft 286kts
15-May-16 09:14 34.019203 -118.539748 95 8184ft 278kts
15-May-16 09:15 34.011632 -118.452760 86 7036ft 256kts
15-May-16 09:16 34.020255 -118.373606 81 6955ft 246kts
15-May-16 09:17 34.029937 -118.296796 81 6028ft 234kts
15-May-16 09:18 34.039770 -118.224671 81 5065ft 220kts
15-May-16 09:19 34.049323 -118.157143 81 4979ft 212kts
15-May-16 09:20 34.027012 -118.107414 180 4550ft 198kts
15-May-16 09:21 33.987528 -118.141837 240 3964ft 193kts
15-May-16 09:22 33.971163 -118.203180 262 3524ft 199kts
15-May-16 09:23 33.965656 -118.267044 262 2386ft 171kts
15-May-16 09:23 33.961481 -118.309250 262 1685ft 148kts
15-May-16 09:25 33.955866 -118.365268 262 776ft 146kts
15-May-16 09:25 33.951749 -118.405594 262 150ft 146kts
15-May-16 09:26 33.948865 -118.426238 233 132ft 12kts
15-May-16 09:27 33.948499 -118.426789 226 132ft 0kts
15-May-16 09:28 33.948499 -118.426790 226 132ft 0kts
15-May-16 09:29 33.948417 -118.426896 224 132ft 1kts
15-May-16 09:30 33.947229 -118.427714 188 132ft 8kts
15-May-16 09:31 33.946599 -118.424611 83 132ft 15kts
15-May-16 09:32 33.947213 -118.418637 83 132ft 19kts
15-May-16 09:34 33.947952 -118.412714 82 132ft 16kts
15-May-16 09:35 33.948483 -118.407660 82 132ft 15kts
15-May-16 09:36 33.948670 -118.402943 153 132ft 9kts
15-May-16 09:37 33.948364 -118.401177 113 132ft 1kts
15-May-16 09:38 33.947863 -118.401111 184 132ft 0kts
15-May-16 09:39 33.947863 -118.401111 184 132ft 0kts
15-May-16 09:40 33.947863 -118.401111 184 132ft 0kts
15-May-16 09:41 33.947863 -118.401111 184 132ft 0kts

Navigation Log

Ident Type
Flight plan parsing failed, navigation log unavailable